Hundvaag 1 weather for Jan 2005
Month no. 211
Obs.
Da.
Temp. Dew Point Precip. Wind
Speed
Wind gusts Cloud cover Press. Humidity Wind dir. Sunny OPT
01.01.2005 6,1   5,0 8,0   4 1009,2 93,0 180,0 1 62,5 %
02.01.2005 3,4   19,6 33,0   0 996,1 65,0 292,5   20,0 %
03.01.2005 3,2   5,3 26,0   0 1010,1 81,0 337,5   37,5 %
04.01.2005 8,1   20,5 13,0   0 1006,1 93,0 247,5   40,0 %
05.01.2005 6,5   6,1 17,0   2 1008,1 76,0 270,0   50,0 %
06.01.2005 5,8   5,3 31,0   9 1007,4 76,0 270,0 1 60,0 %
07.01.2005 9,6   1,1 23,0   0 1000,5 87,0 225,0   47,5 %
08.01.2005 8,4   9,0 26,0   0 982,0 93,0 180,0   37,5 %
09.01.2005 5,5   10,2 18,0   4 1003,3 81,0 270,0 1 52,5 %
10.01.2005 9,8   22,0 20,0   0 997,6 76,0 270,0   32,5 %
11.01.2005 8,0   0,0 14,0   0 1008,1 87,0 180,0   55,0 %
12.01.2005 6,4   6,4 23,0   0 999,8 61,0 225,0   40,0 %
13.01.2005 5,3   3,0 32,0   0 1005,1 81,0 292,5   37,5 %
14.01.2005 4,2   1,6 7,0   8 1018,6 81,0 0,0 1 75,0 %
15.01.2005 6,4   0,0 18,0   0 1018,6 81,0 135,0   50,0 %
16.01.2005 8,1   13,6 14,0   0 1013,1 87,0 180,0 1 45,0 %
17.01.2005 7,7   0,0 20,0   0 1005,1 87,0 202,5   50,0 %
18.01.2005 2,8   2,6 8,0   0 993,9 93,0 157,5 1 52,5 %
19.01.2005 1,0   3,5 9,0   3 998,5 93,0 135,0 1 55,0 %
20.01.2005 3,8   15,0 18,0   0 986,6 76,0 270,0   35,0 %
21.01.2005 1,7   6,0 15,0   5 998,4 81,0 337,5 1 52,5 %
22.01.2005 1,1   5,5 13,0   8 1013,8 83,0 0,0 1 65,0 %
23.01.2005 0,4   3,0 14,0   3 1017,1 92,0 0,0 1 52,5 %
24.01.2005 -1,1   0,2 2,0   10 1021,4 69,0   1 77,5 %
25.01.2005 -2,6   0,0 1,0   2 1024,0 83,0   1 55,0 %
26.01.2005 0,8   0,0 7,0   0 1024,2 65,0 135,0 1 52,5 %
27.01.2005 2,6   0,0 8,0   3 1019,9 93,0 337,5 1 60,0 %
28.01.2005 0,4   0,0 3,0   10 1013,7 93,0 0,0 1 80,0 %
29.01.2005 2,3   0,0 1,0   0 1016,4 93,0     55,0 %
30.01.2005 6,6   0,6 17,0   2 1015,9 87,0 315,0 1 55,0 %
31.01.2005 4,0   3,5 21,0   0 1014,6 70,0 0,0 1 42,5 %
Avrg/Sum 4,4   168,6 15,5   2,4 1008,0 82,5 194,5 17 51,0 %